createdAt,value
2022-10-17T00:01:22.681Z,99405.44
2022-10-17T00:03:49.481Z,99388.53
2022-10-17T00:06:16.271Z,99380.50
2022-10-17T00:08:43.887Z,99408.00
2022-10-17T00:11:21.966Z,99416.03
2022-10-17T00:13:50.151Z,99420.56
2022-10-17T00:16:24.911Z,99419.53
2022-10-17T00:18:51.996Z,99412.94
2022-10-17T00:21:19.631Z,99386.81
2022-10-17T00:23:46.967Z,99383.81
2022-10-17T00:26:14.290Z,99376.34
2022-10-17T00:28:41.177Z,99388.13
2022-10-17T00:31:10.606Z,99384.50
2022-10-17T00:33:37.405Z,99370.28
2022-10-17T00:36:14.221Z,99367.84
2022-10-17T00:38:43.270Z,99357.06
2022-10-17T00:41:11.576Z,99351.22
2022-10-17T00:43:50.622Z,99351.91
2022-10-17T00:46:17.536Z,99348.19
2022-10-17T00:48:44.551Z,99338.88
2022-10-17T00:51:11.366Z,99314.91
2022-10-17T00:53:39.644Z,99303.41
2022-10-17T00:56:06.591Z,99296.66
2022-10-17T00:58:33.463Z,99308.53
2022-10-17T01:01:00.741Z,99321.91
2022-10-17T01:03:27.574Z,99326.69
2022-10-17T01:05:54.805Z,99313.88
2022-10-17T01:08:21.695Z,99305.47
2022-10-17T01:11:34.892Z,99320.16
2022-10-17T01:14:23.681Z,99318.75
2022-10-17T01:16:56.394Z,99317.22
2022-10-17T01:19:41.143Z,99302.28
2022-10-17T01:22:17.115Z,99289.53
2022-10-17T01:25:05.830Z,99292.06
2022-10-17T01:28:00.425Z,99285.16
2022-10-17T01:30:53.506Z,99267.09
2022-10-17T01:33:30.003Z,99267.47
2022-10-17T01:36:08.207Z,99275.13
2022-10-17T01:38:39.665Z,99256.94
2022-10-17T01:41:14.088Z,99248.75
2022-10-17T01:43:46.691Z,99233.63
2022-10-17T01:46:24.395Z,99222.41
2022-10-17T01:48:52.874Z,99216.41
2022-10-17T01:51:25.193Z,99201.66
2022-10-17T01:53:55.609Z,99208.66
2022-10-17T01:56:25.175Z,99202.16
2022-10-17T01:58:58.731Z,99186.94
2022-10-17T02:01:27.096Z,99186.22
2022-10-17T02:03:54.646Z,99166.94
2022-10-17T02:06:21.467Z,99154.22
2022-10-17T02:08:51.235Z,99146.09
2022-10-17T02:11:24.385Z,99149.72
2022-10-17T02:14:17.364Z,99143.72
2022-10-17T02:16:56.623Z,99143.03
2022-10-17T02:19:32.520Z,99140.91
2022-10-17T02:22:21.182Z,99146.72
2022-10-17T02:25:09.560Z,99146.97
2022-10-17T02:27:43.765Z,99158.25
2022-10-17T02:30:37.407Z,99130.91
2022-10-17T02:33:15.214Z,99121.81
2022-10-17T02:35:44.893Z,99101.53
2022-10-17T02:38:12.808Z,99106.38
2022-10-17T02:40:40.227Z,99108.59
2022-10-17T02:43:07.627Z,99103.41
2022-10-17T02:45:38.034Z,99104.75
2022-10-17T02:48:24.284Z,99115.38
2022-10-17T02:51:12.893Z,99098.84
2022-10-17T02:53:57.899Z,99102.72
2022-10-17T02:56:26.043Z,99104.75
2022-10-17T02:58:57.947Z,99098.94
2022-10-17T03:01:25.203Z,99105.31
2022-10-17T03:04:05.147Z,99094.28
2022-10-17T03:06:31.933Z,99096.41
2022-10-17T03:08:58.715Z,99092.91
2022-10-17T03:11:26.852Z,99098.28
2022-10-17T03:13:53.576Z,99085.81
2022-10-17T03:16:20.561Z,99090.34
2022-10-17T03:18:50.010Z,99095.94
2022-10-17T03:21:17.561Z,99104.72
2022-10-17T03:23:44.550Z,99094.81
2022-10-17T03:26:13.069Z,99091.06
2022-10-17T03:28:40.597Z,99085.44
2022-10-17T03:31:13.739Z,99032.72
2022-10-17T03:33:41.059Z,99002.47
2022-10-17T03:36:10.739Z,98970.44
2022-10-17T03:38:39.156Z,98934.72
2022-10-17T03:41:07.371Z,98939.25
2022-10-17T03:43:35.720Z,98954.28
2022-10-17T03:46:03.462Z,98948.53
2022-10-17T03:48:30.924Z,98938.72
2022-10-17T03:51:05.215Z,98950.00
2022-10-17T03:53:34.742Z,98936.63
2022-10-17T03:56:24.608Z,98929.66
2022-10-17T03:59:02.034Z,98924.03
2022-10-17T04:01:30.944Z,98919.22
2022-10-17T04:03:57.972Z,98909.56
2022-10-17T04:06:28.274Z,98908.56
2022-10-17T04:08:55.127Z,98914.72
2022-10-17T04:11:26.630Z,98913.41
2022-10-17T04:13:59.761Z,98906.44
2022-10-17T04:16:28.554Z,98903.22
2022-10-17T04:19:00.217Z,98885.28
2022-10-17T04:21:30.742Z,98872.47
2022-10-17T04:24:04.738Z,98876.22
2022-10-17T04:26:42.706Z,98872.78
2022-10-17T04:29:09.581Z,98867.13
2022-10-17T04:31:36.264Z,98880.63
2022-10-17T04:34:26.065Z,98870.97
2022-10-17T04:36:52.868Z,98878.22
2022-10-17T04:39:19.834Z,98885.50
2022-10-17T04:41:47.651Z,98879.66
2022-10-17T04:44:14.774Z,98874.84
2022-10-17T04:46:47.806Z,98872.97
2022-10-17T04:49:14.617Z,98859.25
2022-10-17T04:51:43.726Z,98853.63
2022-10-17T04:54:17.361Z,98847.50
2022-10-17T04:56:48.632Z,98857.09
2022-10-17T04:59:15.496Z,98848.78
2022-10-17T05:01:44.443Z,98845.09
2022-10-17T05:04:11.494Z,98862.59
2022-10-17T05:06:38.747Z,98849.25
2022-10-17T05:09:37.936Z,98852.50
2022-10-17T05:12:08.018Z,98855.78
2022-10-17T05:14:39.011Z,98853.63
2022-10-17T05:17:05.825Z,98853.16
2022-10-17T05:19:32.584Z,98852.63
2022-10-17T05:22:00.929Z,98838.09
2022-10-17T05:24:28.608Z,98840.78
2022-10-17T05:26:55.324Z,98830.88
2022-10-17T05:29:22.362Z,98832.47
2022-10-17T05:31:54.734Z,98832.97
2022-10-17T05:34:21.667Z,98840.72
2022-10-17T05:36:48.473Z,98848.00
2022-10-17T05:39:19.836Z,98854.19
2022-10-17T05:41:48.535Z,98850.09
2022-10-17T05:44:16.085Z,98867.03
2022-10-17T05:46:49.637Z,98875.13
2022-10-17T05:49:31.913Z,98872.97
2022-10-17T05:52:04.447Z,98872.44
2022-10-17T05:54:36.684Z,98873.78
2022-10-17T05:57:04.176Z,98878.53
2022-10-17T05:59:33.769Z,98884.19
2022-10-17T06:02:06.937Z,98877.19
2022-10-17T06:04:34.626Z,98876.94
2022-10-17T06:07:02.692Z,98881.75
2022-10-17T06:09:31.725Z,98888.41
2022-10-17T06:11:58.479Z,98882.50
2022-10-17T06:14:25.232Z,98888.94
2022-10-17T06:16:56.263Z,98876.84
2022-10-17T06:19:23.015Z,98882.41
2022-10-17T06:21:49.777Z,98873.00
2022-10-17T06:24:21.085Z,98872.16
2022-10-17T06:26:49.935Z,98868.59
2022-10-17T06:29:17.370Z,98871.34
2022-10-17T06:31:50.291Z,98883.09
2022-10-17T06:34:17.682Z,98885.19
2022-10-17T06:36:46.262Z,98894.03
2022-10-17T06:39:13.429Z,98900.25
2022-10-17T06:41:45.739Z,98896.75
2022-10-17T06:44:17.983Z,98899.94
2022-10-17T06:47:03.280Z,98907.19
2022-10-17T06:49:30.373Z,98905.06
2022-10-17T06:52:01.245Z,98906.44
2022-10-17T06:54:48.248Z,98912.06
2022-10-17T06:57:30.834Z,98919.28
2022-10-17T07:00:09.602Z,98921.97
2022-10-17T07:02:43.936Z,98912.50
2022-10-17T07:05:10.861Z,98923.47
2022-10-17T07:07:40.143Z,98925.09
2022-10-17T07:10:10.184Z,98922.53
2022-10-17T07:12:37.610Z,98930.06
2022-10-17T07:15:05.377Z,98940.47
2022-10-17T07:17:32.353Z,98927.25
2022-10-17T07:19:59.386Z,98930.75
2022-10-17T07:22:26.529Z,98935.47
2022-10-17T07:24:57.217Z,98936.03
2022-10-17T07:27:30.773Z,98946.16
2022-10-17T07:29:58.195Z,98940.78
2022-10-17T07:32:34.768Z,98938.09
2022-10-17T07:35:02.209Z,98929.50
2022-10-17T07:37:29.793Z,98927.63
2022-10-17T07:39:56.913Z,98943.03
2022-10-17T07:42:24.283Z,98944.94
2022-10-17T07:44:51.217Z,98938.78
2022-10-17T07:47:19.508Z,98938.91
2022-10-17T07:49:47.454Z,98942.41
2022-10-17T07:52:14.946Z,98950.47
2022-10-17T07:54:41.914Z,98948.56
2022-10-17T07:57:09.022Z,98951.78
2022-10-17T07:59:37.396Z,98944.84
2022-10-17T08:02:05.099Z,98947.03
2022-10-17T08:04:31.981Z,98954.28
2022-10-17T08:07:18.370Z,98961.03
2022-10-17T08:09:47.320Z,98961.69
2022-10-17T08:12:14.991Z,98958.59
2022-10-17T08:14:42.223Z,98962.38
2022-10-17T08:17:09.120Z,98964.25
2022-10-17T08:19:39.760Z,98976.84
2022-10-17T08:22:06.903Z,98965.50
2022-10-17T08:24:33.724Z,98961.25
2022-10-17T08:27:00.909Z,98968.16
2022-10-17T08:29:28.165Z,98970.31
2022-10-17T08:32:00.994Z,98958.84
2022-10-17T08:34:28.411Z,98952.41
2022-10-17T08:36:55.190Z,98951.34
2022-10-17T08:39:22.112Z,98952.13
2022-10-17T08:41:54.740Z,98958.63
2022-10-17T08:44:58.708Z,98961.88
2022-10-17T08:47:48.738Z,98961.06
2022-10-17T08:50:33.746Z,98966.22
2022-10-17T08:53:10.004Z,98968.38
2022-10-17T08:55:42.823Z,98963.28
2022-10-17T08:58:25.094Z,98955.28
2022-10-17T09:01:24.199Z,98957.50
2022-10-17T09:04:18.288Z,98947.09
2022-10-17T09:07:07.018Z,98957.09
2022-10-17T09:09:42.420Z,98958.78
2022-10-17T09:12:17.687Z,98953.69
2022-10-17T09:15:00.687Z,98957.78
2022-10-17T09:17:42.393Z,98968.31
2022-10-17T09:20:20.130Z,98964.53
2022-10-17T09:25:22.810Z,98959.16
2022-10-17T09:28:13.030Z,98958.38
2022-10-17T09:30:49.259Z,98961.06
2022-10-17T09:33:34.562Z,98966.97
2022-10-17T09:36:09.509Z,98961.06
2022-10-17T09:38:42.379Z,98964.03
2022-10-17T09:41:39.669Z,98962.16
2022-10-17T09:44:24.695Z,98969.69
2022-10-17T09:47:03.231Z,98971.56
2022-10-17T09:49:35.768Z,98967.50
2022-10-17T09:52:09.635Z,98962.91
2022-10-17T09:54:44.343Z,98963.72
2022-10-17T09:57:12.888Z,98969.34
2022-10-17T09:59:57.763Z,98968.00
2022-10-17T10:02:26.067Z,98964.22
2022-10-17T10:05:05.142Z,98961.28
2022-10-17T10:07:39.491Z,98962.66
2022-10-17T10:10:27.611Z,98965.09
2022-10-17T10:13:18.106Z,98962.63
2022-10-17T10:15:46.902Z,98972.84
2022-10-17T10:18:35.724Z,98960.16
2022-10-17T10:21:07.535Z,98978.75
2022-10-17T10:23:35.081Z,98999.00
2022-10-17T10:26:04.240Z,98989.06
2022-10-17T10:28:35.869Z,98993.09
2022-10-17T10:31:06.881Z,98992.84
2022-10-17T10:33:39.298Z,98994.72
2022-10-17T10:36:09.195Z,98991.78
2022-10-17T10:38:36.222Z,98985.31
2022-10-17T10:41:04.507Z,98993.13
2022-10-17T10:43:36.112Z,99008.47
2022-10-17T10:46:06.360Z,98998.19
2022-10-17T10:48:37.229Z,99001.44
2022-10-17T10:51:14.889Z,99006.28
2022-10-17T10:56:53.831Z,99002.53
2022-10-17T10:59:29.628Z,98988.25
2022-10-17T11:02:09.569Z,98997.13
2022-10-17T11:04:45.413Z,99008.16
2022-10-17T11:07:23.271Z,98994.44
2022-10-17T11:10:19.122Z,98997.06
2022-10-17T11:13:04.699Z,99001.72
2022-10-17T11:15:39.577Z,98999.28
2022-10-17T11:18:21.579Z,99008.22
2022-10-17T11:21:01.073Z,99006.03
2022-10-17T11:23:33.030Z,99004.72
2022-10-17T11:26:03.223Z,99008.47
2022-10-17T11:28:30.585Z,99024.13
2022-10-17T11:31:08.358Z,99018.19
2022-10-17T11:33:51.312Z,99028.44
2022-10-17T11:36:20.408Z,99027.88
2022-10-17T11:38:55.904Z,99030.84
2022-10-17T11:41:30.281Z,99031.91
2022-10-17T11:44:19.096Z,99022.22
2022-10-17T11:46:48.780Z,99026.53
2022-10-17T11:49:20.769Z,99037.59
2022-10-17T11:52:10.723Z,99035.41
2022-10-17T11:54:51.054Z,99042.94
2022-10-17T11:58:05.604Z,99031.34
2022-10-17T12:00:48.916Z,99035.66
2022-10-17T12:03:53.926Z,99029.72
2022-10-17T12:06:51.967Z,99042.13
2022-10-17T12:09:43.367Z,99034.31
2022-10-17T12:12:10.479Z,99049.16
2022-10-17T12:14:38.708Z,99046.75
2022-10-17T12:17:21.719Z,99056.16
2022-10-17T12:19:49.160Z,99067.22
2022-10-17T12:22:26.269Z,99072.63
2022-10-17T12:24:56.069Z,99072.88
2022-10-17T12:27:35.820Z,99084.66
2022-10-17T12:30:07.126Z,99086.03
2022-10-17T12:32:47.019Z,99084.16
2022-10-17T12:35:25.711Z,99080.19
2022-10-17T12:37:53.584Z,99083.38
2022-10-17T12:40:37.228Z,99081.75
2022-10-17T12:43:16.140Z,99070.97
2022-10-17T12:45:48.000Z,99076.13
2022-10-17T12:48:34.938Z,99069.94
2022-10-17T12:54:18.547Z,99072.09
2022-10-17T12:56:48.855Z,99067.19
2022-10-17T12:59:25.561Z,99062.88
2022-10-17T13:01:56.627Z,99058.50
2022-10-17T13:04:23.370Z,99064.16
2022-10-17T13:06:54.513Z,99066.06
2022-10-17T13:09:35.845Z,99079.28
2022-10-17T13:12:06.988Z,99072.81
2022-10-17T13:14:34.309Z,99071.78
2022-10-17T13:17:06.558Z,99071.56
2022-10-17T13:19:53.904Z,99067.88
2022-10-17T13:22:23.107Z,99073.69
2022-10-17T13:24:51.369Z,99069.03
2022-10-17T13:27:33.339Z,99073.50
2022-10-17T13:30:01.747Z,99076.53
2022-10-17T13:32:39.382Z,99071.09
2022-10-17T13:35:12.032Z,99071.97
2022-10-17T13:37:43.640Z,99075.97
2022-10-17T13:40:44.504Z,99068.97
2022-10-17T13:43:19.179Z,99080.59
2022-10-17T13:45:50.369Z,99080.91
2022-10-17T13:48:21.259Z,99076.34
2022-10-17T13:50:50.576Z,99084.72
2022-10-17T13:53:18.696Z,99094.69
2022-10-17T13:56:27.227Z,99088.75
2022-10-17T13:59:15.912Z,99089.84
2022-10-17T14:01:42.892Z,99094.16
2022-10-17T14:04:19.168Z,99096.06
2022-10-17T14:06:49.650Z,99083.63
2022-10-17T14:09:24.594Z,99092.81
2022-10-17T14:12:01.966Z,99090.97
2022-10-17T14:14:30.426Z,99090.94
2022-10-17T14:17:14.129Z,99099.03
2022-10-17T14:19:41.007Z,99109.00
2022-10-17T14:22:22.998Z,99113.59
2022-10-17T14:24:52.068Z,99116.28
2022-10-17T14:27:30.966Z,99111.72
2022-10-17T14:30:03.667Z,99110.63
2022-10-17T14:35:24.337Z,99106.56
2022-10-17T14:37:53.023Z,99110.38
2022-10-17T14:40:23.657Z,99117.09
2022-10-17T14:42:56.238Z,99110.38
2022-10-17T14:45:31.944Z,99111.69
2022-10-17T14:48:13.449Z,99114.69
2022-10-17T14:50:40.258Z,99125.75
2022-10-17T14:53:22.054Z,99129.50
2022-10-17T14:56:00.557Z,99124.63
2022-10-17T14:58:33.426Z,99133.78
2022-10-17T15:01:01.618Z,99123.81
2022-10-17T15:03:28.763Z,99123.00
2022-10-17T15:05:55.751Z,99130.50
2022-10-17T15:08:23.475Z,99131.31
2022-10-17T15:10:51.185Z,99127.50
2022-10-17T15:13:39.907Z,99129.19
2022-10-17T15:16:17.616Z,99139.19
2022-10-17T15:18:44.333Z,99143.22
2022-10-17T15:21:33.921Z,99154.03
2022-10-17T15:24:04.449Z,99152.41
2022-10-17T15:26:33.039Z,99151.34
2022-10-17T15:29:00.124Z,99159.66
2022-10-17T15:31:29.010Z,99160.75
2022-10-17T15:33:55.792Z,99173.69
2022-10-17T15:36:24.234Z,99171.00
2022-10-17T15:38:53.439Z,99181.31
2022-10-17T15:41:20.458Z,99167.25
2022-10-17T15:43:48.584Z,99176.41
2022-10-17T15:46:19.086Z,99188.81
2022-10-17T15:48:45.881Z,99178.53
2022-10-17T15:51:12.950Z,99174.75
2022-10-17T15:53:39.847Z,99174.50
2022-10-17T15:56:07.118Z,99198.78
2022-10-17T15:58:38.725Z,99186.66
2022-10-17T16:01:06.493Z,99189.84
2022-10-17T16:03:34.046Z,99191.19
2022-10-17T16:06:01.017Z,99199.28
2022-10-17T16:08:28.378Z,99201.44
2022-10-17T16:10:55.919Z,99202.75
2022-10-17T16:13:24.329Z,99206.78
2022-10-17T16:15:51.341Z,99201.06
2022-10-17T16:18:18.139Z,99212.94
2022-10-17T16:20:44.876Z,99217.47
2022-10-17T16:23:13.040Z,99229.84
2022-10-17T16:25:40.423Z,99229.28
2022-10-17T16:28:08.482Z,99232.22
2022-10-17T16:30:42.572Z,99235.47
2022-10-17T16:33:10.439Z,99244.63
2022-10-17T16:35:37.707Z,99246.28
2022-10-17T16:38:06.250Z,99241.38
2022-10-17T16:40:33.172Z,99236.53
2022-10-17T16:43:00.316Z,99234.59
2022-10-17T16:45:27.196Z,99233.78
2022-10-17T16:47:54.058Z,99247.78
2022-10-17T16:50:20.808Z,99255.31
2022-10-17T16:52:47.638Z,99257.22
2022-10-17T16:55:14.405Z,99263.94
2022-10-17T17:00:12.836Z,99272.53
2022-10-17T17:02:39.584Z,99283.66
2022-10-17T17:05:07.126Z,99278.78
2022-10-17T17:07:34.266Z,99285.75
2022-10-17T17:10:01.027Z,99287.13
2022-10-17T17:12:27.847Z,99289.50
2022-10-17T17:14:54.647Z,99291.31
2022-10-17T17:17:36.866Z,99293.22
2022-10-17T17:20:08.517Z,99305.16
2022-10-17T17:22:35.345Z,99308.16
2022-10-17T17:25:02.162Z,99314.69
2022-10-17T17:27:29.327Z,99317.13
2022-10-17T17:29:56.385Z,99321.16
2022-10-17T17:32:23.191Z,99330.31
2022-10-17T17:34:50.060Z,99335.16
2022-10-17T17:37:16.768Z,99338.03
2022-10-17T17:39:43.526Z,99343.00
2022-10-17T17:42:10.259Z,99344.88
2022-10-17T17:44:37.042Z,99353.69
2022-10-17T17:47:03.782Z,99358.00
2022-10-17T17:49:30.614Z,99365.69
2022-10-17T17:51:57.349Z,99373.59
2022-10-17T17:54:24.122Z,99375.69
2022-10-17T17:56:50.885Z,99382.41
2022-10-17T17:59:17.662Z,99385.63
2022-10-17T18:01:44.533Z,99391.03
2022-10-17T18:04:11.776Z,99395.34
2022-10-17T18:06:39.889Z,99402.75
2022-10-17T18:09:07.540Z,99408.53
2022-10-17T18:11:34.811Z,99408.28
2022-10-17T18:14:07.253Z,99427.41
2022-10-17T18:16:35.669Z,99426.22
2022-10-17T18:19:06.662Z,99431.41
2022-10-17T18:21:33.960Z,99430.97
2022-10-17T18:24:00.867Z,99438.38
2022-10-17T18:26:28.316Z,99446.59
2022-10-17T18:28:55.150Z,99447.66
2022-10-17T18:31:28.640Z,99463.78
2022-10-17T18:33:56.895Z,99474.19
2022-10-17T18:36:26.047Z,99484.06
2022-10-17T18:38:53.533Z,99486.25
2022-10-17T18:41:22.549Z,99495.16
2022-10-17T18:43:50.387Z,99511.78
2022-10-17T18:46:20.074Z,99522.47
2022-10-17T18:48:47.863Z,99528.84
2022-10-17T18:51:21.165Z,99548.56
2022-10-17T18:53:50.211Z,99564.59
2022-10-17T18:56:17.942Z,99591.59
2022-10-17T18:58:45.109Z,99589.97
2022-10-17T19:01:17.788Z,99609.16
2022-10-17T19:03:45.944Z,99612.16
2022-10-17T19:06:16.312Z,99615.72
2022-10-17T19:08:43.545Z,99621.09
2022-10-17T19:11:14.247Z,99625.94
2022-10-17T19:13:41.696Z,99629.69
2022-10-17T19:16:12.238Z,99638.56
2022-10-17T19:18:39.444Z,99649.81
2022-10-17T19:21:08.697Z,99663.34
2022-10-17T19:23:36.320Z,99667.09
2022-10-17T19:26:11.195Z,99684.69
2022-10-17T19:28:41.526Z,99692.81
2022-10-17T19:31:08.943Z,99700.06
2022-10-17T19:33:35.748Z,99712.41
2022-10-17T19:36:07.164Z,99717.81
2022-10-17T19:38:34.707Z,99719.31
2022-10-17T19:41:05.030Z,99734.66
2022-10-17T19:43:31.845Z,99747.53
2022-10-17T19:46:04.072Z,99757.69
2022-10-17T19:48:35.474Z,99761.44
2022-10-17T19:51:06.045Z,99765.94
2022-10-17T19:53:33.290Z,99767.44
2022-10-17T19:56:00.652Z,99773.31
2022-10-17T19:58:27.986Z,99782.84
2022-10-17T20:01:01.164Z,99790.47
2022-10-17T20:03:28.474Z,99798.19
2022-10-17T20:05:55.606Z,99801.41
2022-10-17T20:08:22.582Z,99803.44
2022-10-17T20:10:49.421Z,99804.00
2022-10-17T20:13:16.286Z,99814.41
2022-10-17T20:15:43.001Z,99825.03
2022-10-17T20:18:09.852Z,99825.03
2022-10-17T20:20:37.534Z,99849.19
2022-10-17T20:23:04.931Z,99856.09
2022-10-17T20:25:33.428Z,99875.69
2022-10-17T20:28:00.557Z,99883.72
2022-10-17T20:30:27.579Z,99892.34
2022-10-17T20:32:55.646Z,99896.00
2022-10-17T20:35:22.829Z,99909.66
2022-10-17T20:37:49.826Z,99923.19
2022-10-17T20:40:34.062Z,99935.44
2022-10-17T20:43:01.890Z,99937.34
2022-10-17T20:45:43.669Z,99941.88
2022-10-17T20:48:15.830Z,99945.13
2022-10-17T20:50:43.757Z,99953.44
2022-10-17T20:53:35.578Z,99958.00
2022-10-17T20:56:09.051Z,99976.91
2022-10-17T20:58:36.306Z,99979.59
2022-10-17T21:01:10.704Z,99979.94
2022-10-17T21:03:42.352Z,99991.94
2022-10-17T21:06:12.862Z,100008.31
2022-10-17T21:08:39.620Z,100019.16
2022-10-17T21:11:17.313Z,100030.13
2022-10-17T21:13:44.912Z,100034.00
2022-10-17T21:16:18.267Z,100038.56
2022-10-17T21:18:45.658Z,100036.38
2022-10-17T21:21:24.733Z,100054.53
2022-10-17T21:23:53.145Z,100063.75
2022-10-17T21:26:20.248Z,100064.88
2022-10-17T21:28:48.728Z,100082.50
2022-10-17T21:31:27.120Z,100095.97
2022-10-17T21:33:56.127Z,100097.47
2022-10-17T21:36:23.539Z,100089.31
2022-10-17T21:38:52.172Z,100103.44
2022-10-17T21:41:21.146Z,100123.53
2022-10-17T21:43:50.025Z,100115.22
2022-10-17T21:46:18.201Z,100131.38
2022-10-17T21:48:45.713Z,100120.34
2022-10-17T21:51:14.661Z,100134.00
2022-10-17T21:53:41.754Z,100126.81
2022-10-17T21:56:11.620Z,100146.00
2022-10-17T21:58:38.821Z,100146.59
2022-10-17T22:01:12.439Z,100161.66
2022-10-17T22:03:45.702Z,100162.16
2022-10-17T22:09:21.529Z,100184.44
2022-10-17T22:11:51.891Z,100188.75
2022-10-17T22:14:20.545Z,100203.13
2022-10-17T22:16:48.190Z,100208.34
2022-10-17T22:19:18.214Z,100216.13
2022-10-17T22:21:45.759Z,100230.59
2022-10-17T22:24:14.557Z,100233.28
2022-10-17T22:26:42.266Z,100248.19
2022-10-17T22:29:09.545Z,100252.47
2022-10-17T22:31:37.332Z,100256.59
2022-10-17T22:34:05.518Z,100256.50
2022-10-17T22:36:33.139Z,100255.81
2022-10-17T22:38:59.868Z,100255.56
2022-10-17T22:41:26.637Z,100265.88
2022-10-17T22:43:53.470Z,100263.09
2022-10-17T22:46:20.322Z,100265.13
2022-10-17T22:48:47.068Z,100270.53
2022-10-17T22:51:13.988Z,100274.16
2022-10-17T22:53:40.968Z,100288.69
2022-10-17T22:56:09.967Z,100290.53
2022-10-17T22:58:37.072Z,100301.66
2022-10-17T23:01:04.962Z,100306.41
2022-10-17T23:03:32.222Z,100316.25
2022-10-17T23:05:59.340Z,100325.06
2022-10-17T23:08:27.017Z,100322.66
2022-10-17T23:10:54.291Z,100321.19
2022-10-17T23:13:21.982Z,100329.03
2022-10-17T23:15:55.968Z,100349.66
2022-10-17T23:18:23.873Z,100357.19
2022-10-17T23:20:50.864Z,100350.19
2022-10-17T23:23:18.323Z,100365.44
2022-10-17T23:25:45.258Z,100362.78
2022-10-17T23:28:12.221Z,100361.19
2022-10-17T23:30:39.647Z,100367.91
2022-10-17T23:33:06.858Z,100378.56
2022-10-17T23:35:34.432Z,100375.56
2022-10-17T23:38:01.239Z,100380.81
2022-10-17T23:40:28.246Z,100390.38
2022-10-17T23:42:55.953Z,100394.63
2022-10-17T23:45:22.748Z,100406.34
2022-10-17T23:47:49.531Z,100411.13
2022-10-17T23:50:16.512Z,100421.03
2022-10-17T23:52:43.450Z,100422.44
2022-10-17T23:55:11.015Z,100428.03
2022-10-17T23:57:37.771Z,100437.53
